Time;durP1;ratioP1;P1;durP2;ratioP2;P2;SDS_P1;SDS_P2;PMS_P1;PMS_P2;Temp;Humidity;BMP_temperature;BMP_pressure;BME280_temperature;BME280_humidity;BME280_pressure;Samples;Min_cycle;Max_cycle;Signal;HPM_P1;HPM_P2
2021/12/27 00:01:47;;;;;;;12.63;5.07;;;-3271.80;80.00;;;;;;5038812;28;20130;-74
2021/12/27 00:04:12;;;;;;;9.18;3.88;;;-3271.80;80.30;;;;;;5036624;28;20104;-74
2021/12/27 00:06:38;;;;;;;11.95;5.55;;;-3271.80;80.30;;;;;;5037932;28;20075;-74
2021/12/27 00:09:03;;;;;;;11.63;4.88;;;-3271.80;80.30;;;;;;5035117;28;20210;-74
2021/12/27 00:11:29;;;;;;;13.48;4.88;;;-3271.80;80.50;;;;;;5034420;28;20120;-73
2021/12/27 00:13:55;;;;;;;11.10;4.68;;;-3271.80;80.10;;;;;;5030890;28;20025;-74
2021/12/27 00:16:20;;;;;;;11.27;5.45;;;-3271.90;80.40;;;;;;5045773;28;20027;-75
2021/12/27 00:18:46;;;;;;;12.25;4.40;;;-3271.80;80.20;;;;;;5045764;28;20022;-75
2021/12/27 00:21:11;;;;;;;9.02;4.40;;;-3271.80;80.60;;;;;;5051175;28;20021;-75
2021/12/27 00:23:37;;;;;;;11.07;5.38;;;-3271.90;80.60;;;;;;5036352;28;20144;-75
2021/12/27 00:26:03;;;;;;;10.65;5.53;;;-3271.90;80.80;;;;;;5040162;28;20025;-74
2021/12/27 00:28:30;;;;;;;10.65;4.50;;;-3271.90;80.40;;;;;;5043045;28;20150;-74
2021/12/27 00:30:56;;;;;;;11.10;4.75;;;-3272.00;80.90;;;;;;5036393;28;20066;-74
2021/12/27 00:33:22;;;;;;;10.82;4.80;;;-3272.00;80.30;;;;;;5043001;28;20036;-74
2021/12/27 00:35:48;;;;;;;10.52;4.72;;;-3272.00;80.90;;;;;;5037399;28;20021;-73
2021/12/27 00:38:14;;;;;;;13.85;5.05;;;-3272.00;80.40;;;;;;5036185;28;20063;-75
2021/12/27 00:40:39;;;;;;;11.50;5.28;;;-3272.00;80.40;;;;;;5034847;28;20045;-74
2021/12/27 00:43:05;;;;;;;11.38;5.40;;;-3272.00;80.50;;;;;;5042653;28;20052;-74
2021/12/27 00:45:30;;;;;;;12.25;5.10;;;-3272.00;80.40;;;;;;5030582;28;20029;-76
2021/12/27 00:47:56;;;;;;;11.43;5.38;;;-3272.00;80.70;;;;;;5029806;28;20072;-74
2021/12/27 00:50:21;;;;;;;12.68;5.15;;;-3272.00;80.70;;;;;;5042522;28;20492;-74
2021/12/27 00:52:48;;;;;;;13.60;5.22;;;-3272.00;80.20;;;;;;5034615;28;20053;-74
2021/12/27 00:55:15;;;;;;;14.23;4.85;;;-3272.00;80.70;;;;;;5042785;28;20032;-74
2021/12/27 00:57:41;;;;;;;12.32;5.28;;;-3272.00;80.80;;;;;;5044029;28;20083;-74
2021/12/27 01:00:11;;;;;;;10.73;5.07;;;-3272.10;81.00;;;;;;5033097;28;20040;-75
2021/12/27 01:02:36;;;;;;;9.00;4.23;;;-3272.10;80.80;;;;;;5037107;28;20112;-75
2021/12/27 01:05:02;;;;;;;12.93;5.35;;;-3272.10;80.90;;;;;;5043158;28;20048;-75
2021/12/27 01:07:28;;;;;;;13.32;6.13;;;-3272.20;80.40;;;;;;5033968;28;20029;-74
2021/12/27 01:13:03;;;;;;;11.55;5.30;;;-3272.20;80.30;;;;;;5037968;28;20032;-75
2021/12/27 01:18:00;;;;;;;11.10;4.75;;;-3272.30;80.00;;;;;;5033272;28;20136;-75
2021/12/27 01:20:26;;;;;;;12.85;5.63;;;-3272.30;79.70;;;;;;5038632;28;20104;-74
2021/12/27 01:22:53;;;;;;;9.27;4.25;;;-3272.30;80.40;;;;;;5037725;28;20029;-74
2021/12/27 01:25:19;;;;;;;12.82;5.55;;;-3272.30;79.10;;;;;;5062491;28;20017;-74
2021/12/27 01:27:45;;;;;;;13.82;5.72;;;-3272.30;79.50;;;;;;5043149;28;20037;-74
2021/12/27 01:30:15;;;;;;;13.80;5.72;;;-3272.30;79.90;;;;;;5028922;28;20075;-75
2021/12/27 01:32:47;;;;;;;12.30;5.55;;;-3272.30;79.80;;;;;;5036437;28;20026;-76
2021/12/27 01:35:13;;;;;;;12.75;6.05;;;-3272.30;79.70;;;;;;5030296;28;20033;-74
2021/12/27 01:37:39;;;;;;;14.65;5.78;;;-3272.30;80.00;;;;;;5027720;28;20473;-75
2021/12/27 01:40:06;;;;;;;12.07;5.60;;;-3272.20;80.70;;;;;;5044142;28;20040;-76
2021/12/27 01:42:32;;;;;;;12.98;6.25;;;-3272.20;80.00;;;;;;5055102;28;20116;-75
2021/12/27 01:44:57;;;;;;;12.70;5.32;;;-3272.30;80.30;;;;;;5035415;28;20430;-75
2021/12/27 01:47:23;;;;;;;16.55;5.93;;;-3272.30;80.00;;;;;;5039763;28;20060;-75
2021/12/27 01:49:49;;;;;;;12.15;5.80;;;-3272.30;79.90;;;;;;5039769;28;20112;-74
2021/12/27 01:52:14;;;;;;;13.65;6.20;;;-3272.30;79.80;;;;;;5044002;28;20033;-75
2021/12/27 01:54:40;;;;;;;15.57;6.40;;;-3272.30;79.80;;;;;;5038680;28;20541;-74
2021/12/27 01:57:06;;;;;;;12.23;5.65;;;-3272.30;79.50;;;;;;5038406;28;20447;-75
2021/12/27 01:59:32;;;;;;;14.43;6.63;;;-3272.30;79.40;;;;;;5034784;28;20025;-75
2021/12/27 02:01:57;;;;;;;13.95;6.32;;;-3272.30;79.50;;;;;;5034456;28;20434;-76
2021/12/27 02:04:23;;;;;;;12.75;6.15;;;-3272.40;79.80;;;;;;5038300;28;20145;-75
2021/12/27 02:06:49;;;;;;;13.88;6.60;;;-3272.40;79.90;;;;;;5029152;28;20505;-75
2021/12/27 02:09:17;;;;;;;16.75;6.97;;;-3272.40;79.80;;;;;;5040831;28;20041;-74
2021/12/27 02:11:43;;;;;;;15.35;6.40;;;-3272.40;79.70;;;;;;5034203;28;20029;-74
2021/12/27 02:14:09;;;;;;;14.80;6.85;;;-3272.40;80.10;;;;;;5033694;28;20504;-74
2021/12/27 02:16:35;;;;;;;16.00;6.75;;;-3272.40;79.90;;;;;;5033453;28;20065;-75
2021/12/27 02:19:01;;;;;;;15.65;5.57;;;-3272.40;80.40;;;;;;5045222;28;20495;-76
2021/12/27 02:21:26;;;;;;;16.60;6.78;;;-3272.40;79.70;;;;;;5038264;28;20099;-75
2021/12/27 02:23:54;;;;;;;13.90;6.22;;;-3272.40;80.50;;;;;;5037016;28;20060;-75
2021/12/27 02:26:21;;;;;;;17.88;7.07;;;-3272.40;80.20;;;;;;5042799;28;20430;-75
2021/12/27 02:28:47;;;;;;;13.35;4.68;;;-3272.40;80.00;;;;;;5041543;28;20124;-74
2021/12/27 02:31:14;;;;;;;12.80;5.95;;;-3272.50;80.30;;;;;;5048118;28;20032;-77
2021/12/27 02:33:42;;;;;;;16.60;5.97;;;-3272.40;79.90;;;;;;5039103;28;20033;-76
2021/12/27 02:36:09;;;;;;;17.20;6.70;;;-3272.40;80.10;;;;;;5033166;28;20456;-76
2021/12/27 02:38:39;;;;;;;13.52;6.35;;;-3272.40;80.40;;;;;;5036990;28;20049;-75
2021/12/27 02:41:05;;;;;;;15.93;6.43;;;-3272.50;81.10;;;;;;5041046;28;20029;-75
2021/12/27 02:43:32;;;;;;;14.80;7.68;;;-3272.50;80.60;;;;;;5038437;28;20112;-76
2021/12/27 02:46:03;;;;;;;14.85;6.75;;;-3272.50;81.00;;;;;;5031739;28;20029;-76
2021/12/27 02:48:31;;;;;;;14.77;7.10;;;-3272.50;81.20;;;;;;5028015;28;20156;-75
2021/12/27 02:50:58;;;;;;;11.63;6.30;;;-3272.50;81.20;;;;;;5044593;28;20392;-75
2021/12/27 02:53:25;;;;;;;12.82;6.38;;;-3272.50;81.40;;;;;;5039559;28;20033;-76
2021/12/27 02:55:53;;;;;;;11.43;5.97;;;-3272.60;81.30;;;;;;5034255;28;20020;-75
2021/12/27 02:58:19;;;;;;;15.95;7.07;;;-3272.40;80.80;;;;;;5038031;28;20499;-76
2021/12/27 03:00:57;;;;;;;20.55;7.43;;;-3272.50;81.20;;;;;;5025669;28;20113;-78
2021/12/27 03:03:23;;;;;;;18.08;7.75;;;-3272.60;81.90;;;;;;5057639;28;20028;-77
2021/12/27 03:05:49;;;;;;;17.02;7.60;;;-3272.60;81.40;;;;;;5036694;28;20035;-73
2021/12/27 03:08:16;;;;;;;13.27;6.45;;;-3272.60;81.50;;;;;;5045202;28;20048;-75
2021/12/27 03:10:49;;;;;;;17.08;7.18;;;-3272.50;81.40;;;;;;5025007;28;20048;-75
2021/12/27 03:13:23;;;;;;;14.05;7.00;;;-3272.50;81.70;;;;;;5043474;28;20907;-75
2021/12/27 03:15:57;;;;;;;17.10;7.40;;;-3272.50;81.70;;;;;;5036119;28;20481;-74
2021/12/27 03:18:23;;;;;;;12.63;5.97;;;-3272.40;81.90;;;;;;5041607;28;20124;-75
2021/12/27 03:20:50;;;;;;;16.40;7.63;;;-3272.40;81.80;;;;;;5031378;28;20100;-76
2021/12/27 03:23:16;;;;;;;18.25;7.95;;;-3272.40;82.10;;;;;;5039169;28;20108;-75
2021/12/27 03:25:41;;;;;;;20.13;8.63;;;-3272.30;82.00;;;;;;5038573;28;20393;-75
2021/12/27 03:28:08;;;;;;;17.85;7.53;;;-3272.30;82.40;;;;;;5034659;28;20496;-76
2021/12/27 03:30:34;;;;;;;17.17;6.53;;;-3272.20;82.80;;;;;;5034598;28;20079;-75
2021/12/27 03:33:00;;;;;;;16.25;7.75;;;-3272.10;83.10;;;;;;5031588;28;20044;-75
2021/12/27 03:35:28;;;;;;;15.38;7.78;;;-3272.10;82.80;;;;;;5041316;28;20077;-75
2021/12/27 03:37:57;;;;;;;17.35;7.95;;;-3272.00;83.20;;;;;;5024180;28;20021;-75
2021/12/27 03:40:23;;;;;;;16.98;8.18;;;-3272.00;83.30;;;;;;5039358;28;20029;-75
2021/12/27 03:42:50;;;;;;;15.02;7.47;;;-3272.00;82.90;;;;;;5035054;28;20087;-74
2021/12/27 03:45:24;;;;;;;17.48;8.32;;;-3271.90;83.60;;;;;;5030227;28;20253;-75
2021/12/27 03:47:50;;;;;;;18.08;8.50;;;-3271.90;83.40;;;;;;5024550;28;20555;-77
2021/12/27 03:50:16;;;;;;;16.58;7.90;;;-3271.90;83.70;;;;;;5049767;28;20017;-74
2021/12/27 03:52:42;;;;;;;18.52;8.57;;;-3271.80;84.00;;;;;;5024952;28;20065;-74
2021/12/27 03:55:09;;;;;;;17.80;8.13;;;-3271.80;84.20;;;;;;5033966;28;20462;-74
2021/12/27 03:57:36;;;;;;;18.75;8.88;;;-3271.90;84.10;;;;;;5037563;28;20041;-75
2021/12/27 04:02:47;;;;;;;20.08;8.80;;;-3272.00;84.10;;;;;;5036434;28;20095;-73
2021/12/27 04:05:13;;;;;;;18.65;8.98;;;-3272.10;84.20;;;;;;5028718;28;20065;-74
2021/12/27 04:07:40;;;;;;;19.65;9.27;;;-3272.10;84.40;;;;;;5040737;28;20063;-74
2021/12/27 04:10:08;;;;;;;18.20;9.15;;;-3272.10;84.10;;;;;;5036695;28;20112;-75
2021/12/27 04:12:34;;;;;;;19.10;9.05;;;-3272.20;84.00;;;;;;5035217;28;20424;-74
2021/12/27 04:15:00;;;;;;;17.50;7.78;;;-3272.20;84.50;;;;;;5050918;28;20381;-74
2021/12/27 04:17:26;;;;;;;21.30;9.15;;;-3272.20;84.60;;;;;;5044625;28;20210;-74
2021/12/27 04:19:51;;;;;;;20.85;8.93;;;-3272.30;84.60;;;;;;5043306;28;20026;-74
2021/12/27 04:22:17;;;;;;;20.20;9.40;;;-3272.40;84.10;;;;;;5035479;28;20021;-75
2021/12/27 04:24:42;;;;;;;22.02;8.48;;;-3272.40;84.30;;;;;;5030104;28;20366;-74
2021/12/27 04:27:08;;;;;;;18.25;9.10;;;-3272.50;84.50;;;;;;5026277;28;20030;-76
2021/12/27 04:29:33;;;;;;;23.58;8.75;;;-3272.50;84.50;;;;;;5037632;28;20059;-75
2021/12/27 04:31:59;;;;;;;18.95;8.43;;;-3272.50;84.50;;;;;;5035334;28;20044;-75
2021/12/27 04:34:24;;;;;;;20.33;10.23;;;-3272.60;84.60;;;;;;5048588;28;20565;-75
2021/12/27 04:36:50;;;;;;;14.55;9.00;;;-3272.60;84.50;;;;;;5042524;28;20303;-75
2021/12/27 04:39:15;;;;;;;21.02;9.73;;;-3272.60;84.70;;;;;;5032959;28;20184;-75
2021/12/27 04:41:41;;;;;;;23.42;10.98;;;-3272.60;84.60;;;;;;5042915;28;20454;-75
2021/12/27 04:44:07;;;;;;;26.48;10.55;;;-3272.70;84.60;;;;;;5033773;28;20029;-74
2021/12/27 04:46:32;;;;;;;23.33;9.50;;;-3272.80;84.90;;;;;;5032068;28;20041;-73
2021/12/27 04:48:58;;;;;;;19.13;9.07;;;-3272.70;84.70;;;;;;5050261;28;20025;-75
2021/12/27 04:51:24;;;;;;;22.08;10.40;;;-3272.80;84.70;;;;;;5040164;28;20470;-77
2021/12/27 04:53:50;;;;;;;21.00;9.63;;;-3272.80;84.70;;;;;;5032131;28;20505;-75
2021/12/27 04:56:16;;;;;;;23.70;10.63;;;-3272.90;84.80;;;;;;5034742;28;20409;-75
2021/12/27 04:58:44;;;;;;;17.83;9.27;;;-3272.90;84.60;;;;;;5042627;28;20203;-76
2021/12/27 05:01:11;;;;;;;21.95;9.98;;;-3272.90;85.00;;;;;;5035810;28;20021;-76
2021/12/27 05:03:37;;;;;;;20.17;10.48;;;-3272.90;84.80;;;;;;5034371;28;20624;-75
2021/12/27 05:06:02;;;;;;;21.20;11.18;;;-3273.00;85.00;;;;;;5035328;28;20033;-75
2021/12/27 05:08:28;;;;;;;20.85;10.35;;;-3273.00;84.90;;;;;;5043081;28;20044;-76
2021/12/27 05:10:53;;;;;;;23.67;10.35;;;-3273.00;85.20;;;;;;5030157;28;20036;-75
2021/12/27 05:13:19;;;;;;;23.95;11.32;;;-3273.00;85.00;;;;;;5033394;28;20048;-77
2021/12/27 05:15:45;;;;;;;22.75;10.95;;;-3273.00;85.10;;;;;;5036453;28;20143;-77
2021/12/27 05:18:10;;;;;;;21.38;10.52;;;-3273.00;85.10;;;;;;5033364;28;20033;-75
2021/12/27 05:20:36;;;;;;;22.85;10.40;;;-3273.10;85.20;;;;;;5035099;28;20030;-75
2021/12/27 05:23:01;;;;;;;20.67;10.25;;;-3273.10;85.20;;;;;;5046322;28;20029;-75
2021/12/27 05:25:27;;;;;;;21.05;10.82;;;-3273.10;85.30;;;;;;5039201;28;20532;-75
2021/12/27 05:27:52;;;;;;;23.70;11.23;;;-3273.10;85.50;;;;;;5038105;28;20032;-75
2021/12/27 05:30:19;;;;;;;22.52;11.05;;;-3273.10;85.40;;;;;;5047233;28;20036;-75
2021/12/27 05:32:45;;;;;;;21.38;10.32;;;-3273.20;85.60;;;;;;5041466;28;20025;-76
2021/12/27 05:35:12;;;;;;;23.35;11.15;;;-3273.20;85.40;;;;;;5032827;28;20115;-75
2021/12/27 05:37:38;;;;;;;27.02;12.25;;;-3273.20;85.30;;;;;;5040298;28;20017;-79
2021/12/27 05:40:07;;;;;;;20.90;10.55;;;-3273.20;85.60;;;;;;5039732;28;20529;-75
2021/12/27 05:42:34;;;;;;;28.10;11.75;;;-3273.20;85.60;;;;;;5037707;28;20075;-76
2021/12/27 05:45:00;;;;;;;21.65;10.80;;;-3273.30;85.70;;;;;;5052002;28;20031;-75
2021/12/27 05:47:26;;;;;;;25.25;11.32;;;-3273.30;85.80;;;;;;5029277;28;20087;-76
2021/12/27 05:49:52;;;;;;;27.40;11.77;;;-3273.30;85.70;;;;;;5034876;28;20029;-76
2021/12/27 05:52:17;;;;;;;25.55;11.93;;;-3273.30;85.80;;;;;;5034809;28;20036;-77
2021/12/27 05:54:43;;;;;;;29.15;12.18;;;-3273.30;85.80;;;;;;5041589;28;20024;-75
2021/12/27 05:57:09;;;;;;;23.65;11.38;;;-3273.30;85.80;;;;;;5040375;28;20037;-75
2021/12/27 05:59:34;;;;;;;23.23;11.18;;;-3273.30;85.90;;;;;;5030947;28;20413;-77
2021/12/27 06:02:00;;;;;;;26.10;12.73;;;-3273.30;85.90;;;;;;5046140;28;20044;-75
2021/12/27 06:04:25;;;;;;;23.65;11.95;;;-3273.30;85.80;;;;;;5038293;28;20195;-75
2021/12/27 06:06:51;;;;;;;20.73;9.95;;;-3273.30;86.00;;;;;;5037754;28;20025;-76
2021/12/27 06:09:16;;;;;;;24.88;12.60;;;-3273.30;86.20;;;;;;5030781;28;20396;-75
2021/12/27 06:11:42;;;;;;;28.73;12.93;;;-3273.30;86.30;;;;;;5031567;28;20080;-75
2021/12/27 06:14:07;;;;;;;21.67;11.82;;;-3273.30;86.40;;;;;;5035573;28;20131;-75
2021/12/27 06:16:33;;;;;;;30.50;12.60;;;-3273.30;86.40;;;;;;5033559;28;20029;-77
2021/12/27 06:18:58;;;;;;;30.38;13.10;;;-3273.30;86.60;;;;;;5039239;28;20259;-76
2021/12/27 06:21:24;;;;;;;22.88;12.23;;;-3273.30;86.60;;;;;;5041969;28;20408;-75
2021/12/27 06:23:50;;;;;;;29.08;12.68;;;-3273.30;86.80;;;;;;5039197;28;20025;-76
2021/12/27 06:26:15;;;;;;;25.33;12.35;;;-3273.20;86.90;;;;;;5039802;28;20056;-75
2021/12/27 06:28:41;;;;;;;25.55;12.63;;;-3273.20;87.00;;;;;;5043824;28;20101;-75
2021/12/27 06:31:07;;;;;;;24.13;12.55;;;-3273.30;87.10;;;;;;5041617;28;20029;-77
2021/12/27 06:33:32;;;;;;;26.63;12.80;;;-3273.30;87.10;;;;;;5033995;28;20026;-75
2021/12/27 06:35:58;;;;;;;26.92;12.82;;;-3273.30;87.20;;;;;;5040159;28;20032;-75
2021/12/27 06:38:24;;;;;;;25.55;12.10;;;-3273.30;87.30;;;;;;5041758;28;20381;-75
2021/12/27 06:40:50;;;;;;;23.13;12.07;;;-3273.30;87.30;;;;;;5032173;28;20027;-75
2021/12/27 06:43:16;;;;;;;29.77;12.93;;;-3273.40;87.50;;;;;;5027254;28;20037;-75
2021/12/27 06:45:42;;;;;;;25.25;11.93;;;-3273.40;87.50;;;;;;5033177;28;20386;-75
2021/12/27 06:48:07;;;;;;;26.73;13.30;;;-3273.30;87.40;;;;;;5036384;28;20029;-74
2021/12/27 06:50:33;;;;;;;26.55;12.88;;;-3273.40;87.70;;;;;;5037738;28;20026;-75
2021/12/27 06:52:59;;;;;;;27.30;12.45;;;-3273.40;87.70;;;;;;5037084;28;20128;-76
2021/12/27 06:55:24;;;;;;;27.38;13.07;;;-3273.30;87.90;;;;;;5034007;28;20080;-76
2021/12/27 06:57:50;;;;;;;25.85;12.77;;;-3273.30;88.00;;;;;;5032818;28;20171;-74
2021/12/27 07:00:16;;;;;;;22.00;12.50;;;-3273.30;88.20;;;;;;5042835;28;20029;-79
2021/12/27 07:02:44;;;;;;;24.02;13.23;;;-3273.30;88.40;;;;;;5032624;28;20021;-75
2021/12/27 07:05:10;;;;;;;27.65;13.65;;;-3273.30;88.60;;;;;;5045979;28;20385;-76
2021/12/27 07:07:36;;;;;;;22.42;12.35;;;-3273.30;88.70;;;;;;5052144;28;20194;-75
2021/12/27 07:10:02;;;;;;;26.52;13.45;;;-3273.30;88.90;;;;;;5050351;28;20119;-76
2021/12/27 07:12:28;;;;;;;22.15;12.73;;;-3273.30;88.90;;;;;;5041374;28;20025;-75
2021/12/27 07:14:53;;;;;;;26.30;13.85;;;-3273.40;89.00;;;;;;5031174;28;20025;-76
2021/12/27 07:17:19;;;;;;;23.48;12.13;;;-3273.40;89.00;;;;;;5025994;28;20021;-77
2021/12/27 07:19:45;;;;;;;31.00;14.60;;;-3273.50;89.00;;;;;;5043235;28;20482;-75
2021/12/27 07:22:11;;;;;;;27.80;13.00;;;-3273.50;88.70;;;;;;5041574;28;20052;-76
2021/12/27 07:24:37;;;;;;;25.35;12.63;;;-3273.50;88.70;;;;;;5035732;28;20129;-76
2021/12/27 07:27:02;;;;;;;36.45;15.25;;;-3273.60;88.80;;;;;;5034576;28;20029;-76
2021/12/27 07:29:28;;;;;;;28.33;14.05;;;-3273.60;88.80;;;;;;5036516;28;20078;-78
2021/12/27 07:31:53;;;;;;;25.27;13.70;;;-3273.60;88.60;;;;;;5035696;28;20106;-75
2021/12/27 07:34:24;;;;;;;29.80;14.07;;;-3273.60;88.70;;;;;;5038849;28;20158;-75
2021/12/27 07:36:49;;;;;;;26.27;13.05;;;-3273.70;88.70;;;;;;5038451;28;20390;-75
2021/12/27 07:39:15;;;;;;;28.75;13.63;;;-3273.60;88.50;;;;;;5036011;28;20029;-75
2021/12/27 07:41:41;;;;;;;23.58;12.15;;;-3273.60;88.50;;;;;;5031860;28;20487;-76
2021/12/27 07:44:07;;;;;;;23.67;12.15;;;-3273.60;88.50;;;;;;5032935;28;20032;-75
2021/12/27 07:46:35;;;;;;;30.70;13.70;;;-3273.60;88.60;;;;;;5045082;28;20124;-77
2021/12/27 07:49:02;;;;;;;27.33;13.73;;;-3273.60;88.80;;;;;;5044116;28;20501;-75
2021/12/27 07:51:27;;;;;;;26.08;13.65;;;-3273.60;88.90;;;;;;5046629;28;20033;-76
2021/12/27 07:53:53;;;;;;;28.88;15.20;;;-3273.60;88.90;;;;;;5034410;28;20083;-76
2021/12/27 07:56:18;;;;;;;28.77;13.85;;;-3273.50;89.10;;;;;;5036809;28;20401;-76
2021/12/27 07:58:44;;;;;;;30.77;14.40;;;-3273.60;89.20;;;;;;5047990;28;20216;-79
2021/12/27 08:01:09;;;;;;;28.08;13.63;;;-3273.60;89.20;;;;;;5029134;28;20317;-74
2021/12/27 08:03:35;;;;;;;31.08;14.82;;;-3273.60;89.30;;;;;;5025473;28;20512;-74
2021/12/27 08:06:00;;;;;;;25.45;14.27;;;-3273.60;89.50;;;;;;5038351;28;20043;-76
2021/12/27 08:08:26;;;;;;;25.50;13.98;;;-3273.60;89.50;;;;;;5038777;28;20057;-74
2021/12/27 08:10:51;;;;;;;27.88;14.63;;;-3273.60;89.50;;;;;;5033047;28;20097;-74
2021/12/27 08:13:17;;;;;;;28.75;14.32;;;-3273.60;89.60;;;;;;5036467;28;20049;-74
2021/12/27 08:15:42;;;;;;;28.13;13.88;;;-3273.60;89.70;;;;;;5037212;28;20122;-74
2021/12/27 08:18:08;;;;;;;32.45;15.07;;;-3273.70;89.80;;;;;;5038469;28;20029;-74
2021/12/27 08:20:33;;;;;;;30.73;14.73;;;-3273.70;89.60;;;;;;5038385;28;20051;-75
2021/12/27 08:22:59;;;;;;;27.38;14.07;;;-3273.70;89.70;;;;;;5052537;28;20195;-74
2021/12/27 08:25:24;;;;;;;33.85;16.15;;;-3273.70;89.70;;;;;;5037209;28;20157;-74
2021/12/27 08:27:51;;;;;;;30.67;15.32;;;-3273.80;89.70;;;;;;5041102;28;20438;-75
2021/12/27 08:30:16;;;;;;;29.73;14.77;;;-3273.80;89.70;;;;;;5042497;28;20033;-76
2021/12/27 08:32:45;;;;;;;29.42;14.90;;;-3273.80;89.70;;;;;;5036437;28;20047;-75
2021/12/27 08:35:11;;;;;;;29.67;15.07;;;-3273.80;89.70;;;;;;5039111;28;20029;-72
2021/12/27 08:37:38;;;;;;;29.40;16.30;;;-3273.90;89.80;;;;;;5028281;28;20103;-75
2021/12/27 08:40:06;;;;;;;31.05;15.65;;;-3273.80;89.70;;;;;;5035066;28;20032;-75
2021/12/27 08:42:32;;;;;;;25.88;13.70;;;-3273.90;89.90;;;;;;5035252;28;20029;-75
2021/12/27 08:44:57;;;;;;;35.65;16.52;;;-3273.90;90.00;;;;;;5028509;28;20492;-76
2021/12/27 08:47:23;;;;;;;29.05;14.35;;;-3274.00;90.10;;;;;;5035697;28;20513;-75
2021/12/27 08:49:48;;;;;;;26.58;15.05;;;-3273.90;89.90;;;;;;5034763;28;20029;-75
2021/12/27 08:52:14;;;;;;;27.88;15.00;;;-3274.00;90.10;;;;;;5034649;28;20033;-76
2021/12/27 08:54:40;;;;;;;33.92;16.92;;;-3273.90;90.10;;;;;;5040676;28;20054;-76
2021/12/27 08:57:09;;;;;;;28.67;15.05;;;-3274.00;90.20;;;;;;5036758;28;20084;-76
2021/12/27 08:59:37;;;;;;;29.70;15.55;;;-3274.00;90.20;;;;;;5048758;28;20469;-76
2021/12/27 09:02:04;;;;;;;29.15;15.43;;;-3274.00;90.30;;;;;;5039748;28;20029;-76
2021/12/27 09:04:30;;;;;;;32.13;15.60;;;-3274.10;90.20;;;;;;5053736;28;20029;-75
2021/12/27 09:06:55;;;;;;;31.38;16.98;;;-3274.10;90.40;;;;;;5038151;28;20053;-76
2021/12/27 09:09:21;;;;;;;32.22;16.70;;;-3274.20;90.40;;;;;;5031818;28;20033;-76
2021/12/27 09:11:47;;;;;;;31.92;15.68;;;-3274.20;90.30;;;;;;5028245;28;20437;-76
2021/12/27 09:14:14;;;;;;;28.05;15.40;;;-3274.30;90.20;;;;;;5040464;28;20029;-76
2021/12/27 09:16:40;;;;;;;31.65;15.68;;;-3274.20;90.10;;;;;;5039267;28;20025;-75
2021/12/27 09:19:05;;;;;;;32.05;16.27;;;-3274.30;90.20;;;;;;5048622;28;20120;-77
2021/12/27 09:21:31;;;;;;;28.60;16.65;;;-3274.40;90.20;;;;;;5060325;28;20184;-76
2021/12/27 09:23:56;;;;;;;33.00;16.45;;;-3274.40;90.10;;;;;;5034823;28;20154;-76
2021/12/27 09:26:22;;;;;;;30.00;16.38;;;-3274.40;90.10;;;;;;5035456;28;20142;-76
2021/12/27 09:28:48;;;;;;;30.52;16.33;;;-3274.50;90.20;;;;;;5034179;28;20430;-76
2021/12/27 09:31:13;;;;;;;26.88;14.93;;;-3274.50;89.90;;;;;;5050211;28;20037;-77
2021/12/27 09:33:39;;;;;;;31.15;16.27;;;-3274.60;90.00;;;;;;5042762;28;20183;-76
2021/12/27 09:36:04;;;;;;;33.83;15.43;;;-3274.60;90.00;;;;;;5051330;28;20029;-76
2021/12/27 09:38:30;;;;;;;29.38;16.70;;;-3274.60;89.90;;;;;;5036043;28;20041;-76
2021/12/27 09:40:55;;;;;;;33.90;15.65;;;-3274.60;89.90;;;;;;5037304;28;20033;-76
2021/12/27 09:43:23;;;;;;;34.75;15.90;;;-3274.60;90.00;;;;;;5039235;28;20022;-75
2021/12/27 09:45:48;;;;;;;30.33;16.17;;;-3274.50;89.90;;;;;;5040849;28;20442;-74
2021/12/27 09:48:14;;;;;;;30.77;17.13;;;-3274.60;90.10;;;;;;5042285;28;20142;-75
2021/12/27 09:50:47;;;;;;;33.38;16.95;;;-3274.70;90.20;;;;;;5036278;28;20038;-76
2021/12/27 09:53:13;;;;;;;29.98;16.27;;;-3274.70;90.10;;;;;;5038230;28;20393;-75
2021/12/27 09:55:38;;;;;;;28.92;16.27;;;-3274.80;90.10;;;;;;5042904;28;20037;-76
2021/12/27 09:58:05;;;;;;;33.03;16.08;;;-3274.90;90.00;;;;;;5040036;28;20223;-76
2021/12/27 10:00:32;;;;;;;29.13;15.52;;;-3274.90;89.60;;;;;;5036046;28;20447;-77
2021/12/27 10:02:58;;;;;;;30.77;17.10;;;-3275.00;89.60;;;;;;5030900;28;20051;-77
2021/12/27 10:05:26;;;;;;;34.42;16.13;;;-3275.00;89.50;;;;;;5030752;28;20037;-76
2021/12/27 10:07:52;;;;;;;33.35;15.85;;;-3275.00;89.50;;;;;;5029774;28;20437;-75
2021/12/27 10:10:18;;;;;;;29.25;16.65;;;-3274.90;89.20;;;;;;5035801;28;20437;-77
2021/12/27 10:12:44;;;;;;;31.00;16.27;;;-3275.00;89.40;;;;;;5039901;28;20061;-77
2021/12/27 10:15:14;;;;;;;33.30;16.77;;;-3275.00;89.50;;;;;;5032930;28;20358;-75
2021/12/27 10:17:42;;;;;;;30.08;16.65;;;-3275.00;89.50;;;;;;5042315;28;20022;-76
2021/12/27 10:20:16;;;;;;;29.10;16.13;;;-3275.00;89.40;;;;;;5035384;28;20052;-76
2021/12/27 10:22:44;;;;;;;32.17;15.68;;;-3275.00;89.40;;;;;;5037179;28;20446;-76
2021/12/27 10:25:17;;;;;;;28.48;15.32;;;-3275.00;89.20;;;;;;5030689;28;20115;-76
2021/12/27 10:27:43;;;;;;;25.52;16.00;;;-3275.10;89.40;;;;;;5035835;28;20043;-76
2021/12/27 10:30:11;;;;;;;33.42;16.48;;;-3275.20;89.40;;;;;;5039773;28;20028;-76
2021/12/27 10:32:36;;;;;;;29.48;15.88;;;-3275.10;89.00;;;;;;5040260;28;20037;-75
2021/12/27 10:35:06;;;;;;;29.63;15.68;;;-3275.10;89.10;;;;;;5035192;28;20055;-77
2021/12/27 10:37:32;;;;;;;30.95;15.80;;;-3275.20;89.00;;;;;;5032666;28;20025;-77
2021/12/27 10:39:58;;;;;;;31.77;16.90;;;-3275.20;89.10;;;;;;5032646;28;20102;-77
2021/12/27 10:42:28;;;;;;;34.03;17.48;;;-3275.20;89.20;;;;;;5035606;28;20032;-76
2021/12/27 10:44:58;;;;;;;30.20;15.75;;;-3275.20;89.20;;;;;;5038283;28;20033;-77
2021/12/27 10:47:30;;;;;;;28.02;16.00;;;-3275.40;89.10;;;;;;5031741;28;20106;-77
2021/12/27 10:50:02;;;;;;;30.98;16.60;;;-3275.50;89.10;;;;;;5052416;28;20071;-76
2021/12/27 10:52:47;;;;;;;30.52;15.93;;;-3275.50;89.00;;;;;;5039879;28;20040;-76
2021/12/27 10:55:14;;;;;;;30.55;16.65;;;-3275.60;88.70;;;;;;5037271;28;20032;-77
2021/12/27 10:57:40;;;;;;;31.67;15.95;;;-3275.70;88.70;;;;;;5030200;28;20037;-76
2021/12/27 11:00:28;;;;;;;28.73;15.82;;;-3275.80;88.50;;;;;;5029983;28;20037;-75
2021/12/27 11:02:54;;;;;;;32.70;17.27;;;-3275.60;88.10;;;;;;5031490;28;20025;-75
2021/12/27 11:05:23;;;;;;;28.88;14.85;;;-3275.50;88.40;;;;;;5033764;28;20029;-77
2021/12/27 11:07:50;;;;;;;29.40;15.05;;;-3275.60;88.80;;;;;;5032474;28;20434;-75
2021/12/27 11:10:16;;;;;;;32.25;16.35;;;-3275.50;88.50;;;;;;5038256;28;20033;-76
2021/12/27 11:12:42;;;;;;;29.45;15.75;;;-3275.50;89.00;;;;;;5047683;28;20025;-75
2021/12/27 11:15:11;;;;;;;28.50;16.15;;;-3275.50;89.00;;;;;;5047734;28;20155;-75
2021/12/27 11:17:38;;;;;;;26.70;14.13;;;-3275.50;88.80;;;;;;5033149;28;20186;-75
2021/12/27 11:20:08;;;;;;;31.75;16.27;;;-3275.50;88.80;;;;;;5034995;28;20025;-77
2021/12/27 11:22:36;;;;;;;27.40;14.80;;;-3275.50;89.20;;;;;;5036657;28;20097;-75
2021/12/27 11:25:07;;;;;;;32.85;16.48;;;-3275.50;89.00;;;;;;5040544;28;20028;-75
2021/12/27 11:27:33;;;;;;;;;;;-3275.50;89.20;;;;;;5036844;28;20474;-75
2021/12/27 11:30:09;;;;;;;29.20;15.15;;;-3275.60;89.20;;;;;;5034311;28;19908;-76
2021/12/27 11:32:36;;;;;;;29.17;15.75;;;-3275.50;89.20;;;;;;5043019;28;20038;-75
2021/12/27 11:35:09;;;;;;;28.52;16.95;;;-3275.50;89.10;;;;;;5034868;28;20021;-75
2021/12/27 11:37:39;;;;;;;29.83;15.35;;;-3275.60;89.30;;;;;;5045593;28;20123;-75
2021/12/27 11:40:08;;;;;;;28.70;15.63;;;-3275.60;89.20;;;;;;5037046;28;20573;-76
2021/12/27 11:42:56;;;;;;;30.02;15.55;;;-3275.50;89.30;;;;;;5027749;28;20037;-77
2021/12/27 11:45:50;;;;;;;35.30;15.88;;;-3275.50;89.50;;;;;;5033025;28;20020;-77
2021/12/27 11:48:18;;;;;;;29.92;15.85;;;-3275.60;89.40;;;;;;5037987;28;20033;-75
2021/12/27 11:50:56;;;;;;;30.75;15.60;;;-3275.60;89.60;;;;;;5038697;28;20113;-76
2021/12/27 11:53:44;;;;;;;28.92;15.70;;;-3275.60;89.60;;;;;;5044740;28;20028;-75
2021/12/27 11:56:15;;;;;;;32.10;15.85;;;-3275.70;89.70;;;;;;5036904;28;20022;-75
2021/12/27 11:58:44;;;;;;;30.38;16.02;;;-3275.70;89.70;;;;;;5041670;28;20521;-76
2021/12/27 12:01:22;;;;;;;31.65;16.45;;;-3275.80;89.70;;;;;;5029630;28;20053;-76
2021/12/27 12:03:49;;;;;;;28.90;14.02;;;-3275.80;89.70;;;;;;5037319;28;20037;-77
2021/12/27 12:06:42;;;;;;;28.55;15.93;;;-3275.70;89.40;;;;;;5033066;28;20032;-76
2021/12/27 12:09:09;;;;;;;32.17;16.65;;;-3275.80;89.60;;;;;;5043128;28;20021;-76
2021/12/27 12:11:34;;;;;;;28.35;15.30;;;-3275.80;89.80;;;;;;5043318;28;20037;-77